createdAt,value
2018-06-11T12:09:14.128Z,22.50
2018-06-11T12:11:41.721Z,22.50
2018-06-11T12:14:09.238Z,22.60
2018-06-11T12:16:36.781Z,22.60
2018-06-11T12:19:04.456Z,22.60
2018-06-11T12:21:32.045Z,22.80
2018-06-11T12:23:59.670Z,22.90
2018-06-11T12:26:27.261Z,23.00
2018-06-11T12:28:54.821Z,23.10
2018-06-11T12:31:22.483Z,23.00
2018-06-11T12:33:50.051Z,23.10
2018-06-11T12:36:24.212Z,23.10
2018-06-11T12:38:51.788Z,23.10
2018-06-11T12:41:19.378Z,23.00
2018-06-11T12:43:46.913Z,23.00
2018-06-11T12:46:14.477Z,23.00
2018-06-11T12:48:41.993Z,22.60
2018-06-11T12:51:09.530Z,22.40
2018-06-11T12:53:37.037Z,22.50
2018-06-11T12:56:04.550Z,22.60
2018-06-11T12:58:32.123Z,22.80
2018-06-11T13:00:59.638Z,22.90
2018-06-11T13:03:27.198Z,22.90
2018-06-11T13:05:54.726Z,23.00
2018-06-11T13:08:22.304Z,23.00
2018-06-11T13:13:17.273Z,23.10
2018-06-11T13:15:44.862Z,23.20
2018-06-11T13:18:12.410Z,23.30
2018-06-11T13:20:39.933Z,23.40
2018-06-11T13:23:07.553Z,23.60
2018-06-11T13:25:35.085Z,23.80
2018-06-11T13:28:02.756Z,23.90
2018-06-11T13:30:30.248Z,24.00
2018-06-11T13:32:57.779Z,24.20
2018-06-11T13:35:25.293Z,24.30
2018-06-11T13:37:52.833Z,24.30
2018-06-11T13:40:20.386Z,24.10
2018-06-11T13:42:47.973Z,24.30
2018-06-11T13:45:15.514Z,24.40
2018-06-11T13:47:43.195Z,24.40
2018-06-11T13:50:10.883Z,24.40
2018-06-11T13:52:38.393Z,24.50
2018-06-11T13:55:05.981Z,24.70
2018-06-11T13:57:33.541Z,24.80
2018-06-11T14:00:01.058Z,24.90
2018-06-11T14:02:28.553Z,24.90
2018-06-11T14:04:56.101Z,25.00
2018-06-11T14:07:23.621Z,25.20
2018-06-11T14:09:51.165Z,25.40
2018-06-11T14:12:18.727Z,25.40
2018-06-11T14:14:46.257Z,25.50
2018-06-11T14:22:08.753Z,25.80
2018-06-11T14:24:36.318Z,25.90
2018-06-11T14:27:03.890Z,26.00
2018-06-11T14:29:31.431Z,25.90
2018-06-11T14:31:58.953Z,25.80
2018-06-11T14:34:26.488Z,25.80
2018-06-11T14:36:54.093Z,25.90
2018-06-11T14:39:21.657Z,26.10
2018-06-11T14:41:49.165Z,26.20
2018-06-11T14:44:16.724Z,26.00
2018-06-11T14:46:44.309Z,26.00
2018-06-11T14:49:11.843Z,26.00
2018-06-11T14:51:40.480Z,26.00
2018-06-11T14:54:08.069Z,26.00
2018-06-11T14:56:35.611Z,26.00
2018-06-11T14:59:03.165Z,26.00
2018-06-11T15:01:30.697Z,26.00
2018-06-11T15:03:58.275Z,25.90
2018-06-11T15:06:25.830Z,25.90
2018-06-11T15:08:53.361Z,26.00
2018-06-11T15:11:20.881Z,25.90
2018-06-11T15:13:48.377Z,25.90
2018-06-11T15:16:22.498Z,26.00
2018-06-11T15:18:50.005Z,26.10
2018-06-11T15:21:17.550Z,26.20
2018-06-11T15:23:45.062Z,26.20
2018-06-11T15:26:12.597Z,26.40
2018-06-11T15:28:40.113Z,26.60
2018-06-11T15:31:07.699Z,26.70
2018-06-11T15:33:35.197Z,26.80
2018-06-11T15:36:03.385Z,26.90
2018-06-11T15:40:58.418Z,27.70
2018-06-11T15:43:25.946Z,27.90
2018-06-11T15:45:53.487Z,27.80
2018-06-11T15:48:21.005Z,27.80
2018-06-11T15:50:48.554Z,27.40
2018-06-11T15:53:16.081Z,27.20
2018-06-11T15:55:43.587Z,26.90
2018-06-11T15:58:11.176Z,26.60
2018-06-11T16:00:38.815Z,26.20
2018-06-11T16:03:06.472Z,26.00
2018-06-11T16:05:33.981Z,25.80
2018-06-11T16:08:01.509Z,25.60
2018-06-11T16:10:29.022Z,25.50
2018-06-11T16:12:56.553Z,25.40
2018-06-11T16:15:24.200Z,25.40
2018-06-11T16:17:51.778Z,25.30
2018-06-11T16:20:19.291Z,25.20
2018-06-11T16:22:46.865Z,25.10
2018-06-11T16:25:14.661Z,25.00
2018-06-11T16:30:09.629Z,24.90
2018-06-11T16:32:37.178Z,24.70
2018-06-11T16:35:04.808Z,24.70
2018-06-11T16:37:32.856Z,24.70
2018-06-11T16:40:00.926Z,24.60
2018-06-11T16:44:56.836Z,24.30
2018-06-11T16:47:24.558Z,24.20
2018-06-11T16:49:52.632Z,24.10
2018-06-11T16:52:20.308Z,24.10
2018-06-11T16:54:47.847Z,24.00
2018-06-11T16:57:15.544Z,24.00
2018-06-11T16:59:43.222Z,24.00
2018-06-11T17:02:10.868Z,24.00
2018-06-11T17:04:38.606Z,24.00
2018-06-11T17:07:06.468Z,24.00
2018-06-11T17:09:34.240Z,24.10
2018-06-11T17:12:01.913Z,24.00
2018-06-11T17:14:29.544Z,24.10
2018-06-11T17:16:57.114Z,24.10
2018-06-11T17:19:24.817Z,24.10
2018-06-11T17:21:52.546Z,24.10
2018-06-11T17:24:20.270Z,24.20
2018-06-11T17:26:47.854Z,24.20
2018-06-11T17:29:15.658Z,24.20
2018-06-11T17:31:43.263Z,24.20
2018-06-11T17:34:10.882Z,24.20
2018-06-11T17:36:38.618Z,24.20
2018-06-11T17:39:09.946Z,24.10
2018-06-11T17:41:37.637Z,24.00
2018-06-11T17:44:05.322Z,24.00
2018-06-11T17:46:32.846Z,24.00
2018-06-11T17:49:00.484Z,23.80
2018-06-11T17:51:28.199Z,23.70
2018-06-11T17:53:55.836Z,23.80
2018-06-11T17:56:23.416Z,23.70
2018-06-11T17:58:51.073Z,23.70
2018-06-11T18:01:18.741Z,23.80
2018-06-11T18:03:46.407Z,23.70
2018-06-11T18:06:13.954Z,23.60
2018-06-11T18:08:41.524Z,23.60
2018-06-11T18:11:09.186Z,23.40
2018-06-11T18:13:36.693Z,23.40
2018-06-11T18:16:04.561Z,23.30
2018-06-11T18:18:32.188Z,23.20
2018-06-11T18:21:00.035Z,23.10
2018-06-11T18:23:27.668Z,23.00
2018-06-11T18:25:55.254Z,22.90
2018-06-11T18:28:22.893Z,23.00
2018-06-11T18:30:50.393Z,22.90
2018-06-11T18:33:18.120Z,22.80
2018-06-11T18:35:45.682Z,22.70
2018-06-11T18:38:13.457Z,22.60
2018-06-11T18:40:41.170Z,22.50
2018-06-11T18:43:08.732Z,22.30
2018-06-11T18:45:36.353Z,22.20
2018-06-11T18:48:04.097Z,22.10
2018-06-11T18:50:31.635Z,22.00
2018-06-11T18:52:59.370Z,21.90
2018-06-11T18:55:26.979Z,21.70
2018-06-11T18:57:54.569Z,21.70
2018-06-11T19:00:22.228Z,21.70
2018-06-11T19:05:17.229Z,21.60
2018-06-11T19:07:44.769Z,21.70
2018-06-11T19:10:12.514Z,21.60
2018-06-11T19:12:40.235Z,21.60
2018-06-11T19:15:07.908Z,21.60
2018-06-11T19:17:35.462Z,21.50
2018-06-11T19:20:03.546Z,21.60
2018-06-11T19:22:31.162Z,21.60
2018-06-11T19:24:58.930Z,21.60
2018-06-11T19:27:26.505Z,21.50
2018-06-11T19:29:54.032Z,21.40
2018-06-11T19:32:21.717Z,21.20
2018-06-11T19:34:49.475Z,21.10
2018-06-11T19:37:17.181Z,21.00
2018-06-11T19:39:44.875Z,20.90
2018-06-11T19:42:12.560Z,20.80
2018-06-11T19:44:40.237Z,20.80
2018-06-11T19:47:07.784Z,20.80
2018-06-11T19:49:35.520Z,20.70
2018-06-11T19:52:03.097Z,20.70
2018-06-11T19:54:30.971Z,20.50
2018-06-11T19:56:58.637Z,20.50
2018-06-11T19:59:26.172Z,20.50
2018-06-11T20:01:53.811Z,20.40
2018-06-11T20:04:21.447Z,20.30
2018-06-11T20:06:49.013Z,20.30
2018-06-11T20:09:16.598Z,20.30
2018-06-11T20:11:44.340Z,20.20
2018-06-11T20:14:12.042Z,20.10
2018-06-11T20:16:39.763Z,20.10
2018-06-11T20:19:07.444Z,20.00
2018-06-11T20:21:35.060Z,20.00
2018-06-11T20:24:02.665Z,19.90
2018-06-11T20:26:30.476Z,19.90
2018-06-11T20:28:58.045Z,19.80
2018-06-11T20:31:25.761Z,19.80
2018-06-11T20:33:53.257Z,19.80
2018-06-11T20:36:20.957Z,19.70
2018-06-11T20:38:48.669Z,19.60
2018-06-11T20:41:16.653Z,19.60
2018-06-11T20:43:44.324Z,19.60
2018-06-11T20:46:12.578Z,19.50
2018-06-11T20:48:40.194Z,19.40
2018-06-11T20:51:07.994Z,19.30
2018-06-11T20:53:35.632Z,19.30
2018-06-11T20:56:03.513Z,19.30
2018-06-11T20:58:31.347Z,19.20
2018-06-11T21:00:59.028Z,19.20
2018-06-11T21:03:26.754Z,19.20
2018-06-11T21:05:54.457Z,19.10
2018-06-11T21:08:22.030Z,19.10
2018-06-11T21:10:49.574Z,19.10
2018-06-11T21:13:17.237Z,18.90
2018-06-11T21:15:44.754Z,18.90
2018-06-11T21:18:12.345Z,18.80
2018-06-11T21:20:39.873Z,18.70
2018-06-11T21:23:07.431Z,18.60
2018-06-11T21:25:35.053Z,18.60
2018-06-11T21:28:02.710Z,18.50
2018-06-11T21:30:30.201Z,18.50
2018-06-11T21:32:57.752Z,18.40
2018-06-11T21:37:52.705Z,18.30
2018-06-11T21:40:20.212Z,18.30
2018-06-11T21:42:47.778Z,18.30
2018-06-11T21:45:15.287Z,18.20
2018-06-11T21:47:42.826Z,18.10
2018-06-11T21:50:10.380Z,18.10
2018-06-11T21:52:37.915Z,18.00
2018-06-11T21:55:05.525Z,18.00
2018-06-11T21:57:32.993Z,17.90
2018-06-11T22:00:00.507Z,17.80
2018-06-11T22:02:28.065Z,17.80
2018-06-11T22:04:55.620Z,17.70
2018-06-11T22:07:23.145Z,17.70
2018-06-11T22:09:50.731Z,17.70
2018-06-11T22:12:18.261Z,17.70
2018-06-11T22:14:45.804Z,17.60
2018-06-11T22:17:13.340Z,17.60
2018-06-11T22:19:40.878Z,17.60
2018-06-11T22:22:08.396Z,17.60
2018-06-11T22:31:58.284Z,17.50
2018-06-11T22:34:25.833Z,17.40
2018-06-11T22:36:53.348Z,17.40
2018-06-11T22:39:20.871Z,17.40
2018-06-11T22:41:48.400Z,17.40
2018-06-11T22:44:15.988Z,17.30
2018-06-11T22:46:43.502Z,17.40
2018-06-11T22:49:11.060Z,17.30
2018-06-11T22:51:38.636Z,17.20
2018-06-11T22:54:06.152Z,17.20
2018-06-11T22:56:33.673Z,17.10
2018-06-11T22:59:01.209Z,17.00
2018-06-11T23:01:28.737Z,16.90
2018-06-11T23:03:56.309Z,16.90
2018-06-11T23:06:23.841Z,16.80
2018-06-11T23:08:51.370Z,16.80
2018-06-11T23:11:18.885Z,16.80
2018-06-11T23:13:46.419Z,16.80
2018-06-11T23:16:13.945Z,16.70
2018-06-11T23:18:41.463Z,16.70
2018-06-11T23:21:08.979Z,16.70
2018-06-11T23:23:36.596Z,16.70
2018-06-11T23:26:04.214Z,16.60
2018-06-11T23:28:31.714Z,16.60
2018-06-11T23:30:59.258Z,16.60
2018-06-11T23:33:26.790Z,16.50
2018-06-11T23:38:21.749Z,16.40
2018-06-11T23:40:49.265Z,16.40
2018-06-11T23:43:16.771Z,16.30
2018-06-11T23:45:44.282Z,16.30
2018-06-11T23:48:11.785Z,16.20
2018-06-11T23:50:39.324Z,16.20
2018-06-11T23:53:06.821Z,16.10
2018-06-11T23:55:34.393Z,16.00
2018-06-11T23:58:01.899Z,16.00
